Content
SEND FEEDBACK

Daily
Averages
Monthly
Summary
Mexico

SAN MARTINIANO, QUINTANA ROO


Home > North America > Mexico > Quintana Roo
Elevation: 49 feet     Latitude: 20 47N     Longitude: 087 16W

WEATHER
 
SELECT A DAY
Number of Records: 206,549;   Date Range: 2/21/06 - 12/26/14
 
SHARE

PRINT THIS DATA

[ ← Previous Day ]
WEATHER ALMANAC - NOVEMBER 16, 2013
[ Next Day → ]
[ °C ]   °F
Weather ElementAverageHighLow
Temperature71.6 °F75.2 °F (1:15 pm)69.8 °F (12:35 am)
Dewpoint15.3 °F71.6 °F (3:15 am) (7:00 pm)
Humidity90.3 %100 % (3:15 am)78 % (12:35 am)
Barometer30.11 in30.16 in (9:35 am)30.07 in (2:15 am)
Wind Speed5.5 mph10.4 mph (2:35 pm)
Weather ElementAverage
Visibility8.7 mi
Wind DirectionENE (77.3 °)

Weather ElementTotal
Precipitation0.40 in
Cooling Degree Days7.5 (Base 65)
Growing Degree Days22.5 (Base 50)
Averaged from 71 records on November 16, 2013
WEATHER CONDITIONS BREAKOUT
WIND DIRECTION BREAKOUT
WEATHER BY HOUR - NOVEMBER 16, 2013
[ °C ]   °F
Local TimeTemperatureDewpointHumidityBarometerVisibilityWind DirectionWind SpeedGust SpeedPrecipitationEventsConditions
12:35 AM69.8 °F62.6 °F78 %30.12 in10.0 miSE (130°)4.6 mph0.01 inRainLight Rain
12:55 AM69.8 °F64.4 °F83 %30.12 in10.0 miSSE (160°)4.6 mph0.01 inOvercast
1:15 AM69.8 °F66.2 °F88 %30.10 in10.0 miSE (140°)5.8 mphRainLight Rain
1:35 AM69.8 °F66.2 °F88 %30.09 in10.0 miSE (130°)6.9 mph0.01 inRainLight Rain
1:55 AM69.8 °F66.2 °F88 %30.08 in10.0 miSE (140°)5.8 mph0.01 inOvercast
2:15 AM71.6 °F66.2 °F83 %30.07 in10.0 miSE (140°)9.2 mphRainRain
2:35 AM71.6 °F66.2 °F83 %30.07 in10.0 miSE (130°)5.8 mphRainLight Rain
2:55 AM71.6 °F66.2 °F83 %30.07 in7.0 miSE (130°)4.6 mph0.02 inRainLight Rain
3:15 AM71.6 °F71.6 °F100 %30.07 in10.0 miSSE (150°)6.9 mphLight Drizzle
3:35 AM71.6 °F71.6 °F100 %30.07 in10.0 miSE (140°)8.1 mph0.01 inRainRain
3:55 AM71.6 °F0.0 °F30.07 in10.0 miSSE (160°)6.9 mph0.01 inRainLight Rain
4:15 AM71.6 °F71.6 °F100 %30.08 in10.0 miSSE (160°)6.9 mph0.01 inRainLight Rain
4:35 AM71.6 °F69.8 °F94 %30.07 in10.0 miSE (140°)5.8 mph0.03 inRainLight Rain
4:55 AM71.6 °F68.0 °F88 %30.07 in10.0 miESE (120°)5.8 mph0.03 inRainLight Rain
5:15 AM71.6 °F69.8 °F94 %30.08 in10.0 miESE (120°)4.6 mph0.01 inDrizzle
5:35 AM71.6 °F69.8 °F94 %30.08 in10.0 miEast (100°)4.6 mph0.01 inDrizzle
5:55 AM71.6 °F71.6 °F100 %30.09 in10.0 miCalm0.01 inRainLight Rain
6:15 AM71.6 °F0.0 °F30.09 in10.0 miCalm0.01 inLight Drizzle
6:35 AM69.8 °F0.0 °F30.10 in10.0 miENE (70°)4.6 mph0.01 inOvercast
6:55 AM69.8 °F0.0 °F30.11 in10.0 miNorth (10°)3.5 mph0.01 inOvercast
7:15 AM69.8 °F0.0 °F30.12 in7.0 miNNE (20°)4.6 mphRainRain
7:35 AM69.8 °F0.0 °F30.13 in7.0 miNorthDrizzle
7:55 AM69.8 °F0.0 °F30.14 in10.0 miNNE (30°)4.6 mphRainRain
8:15 AM69.8 °F0.0 °F30.14 in7.0 miNNE (20°)4.6 mph0.01 inRainLight Rain
8:35 AM69.8 °F0.0 °F30.15 in4.0 miNNE (20°)3.5 mph0.03 inRainLight Rain
8:55 AM69.8 °F0.0 °F30.15 in7.0 miNorth (10°)4.6 mph0.04 inRainRain
9:15 AM69.8 °F0.0 °F30.15 in7.0 miNE (50°)3.5 mphOvercast
9:35 AM69.8 °F0.0 °F30.16 in10.0 miNE (40°)6.9 mphOvercast
9:55 AM69.8 °F0.0 °F30.16 in10.0 miNNE (20°)5.8 mphOvercast
10:15 AM69.8 °F0.0 °F30.16 in7.0 miNE (50°)5.8 mphRainRain
10:35 AM71.6 °F0.0 °F30.16 in7.0 miNNE (30°)5.8 mph0.02 inRainRain
10:55 AM71.6 °F0.0 °F30.16 in7.0 miNE (50°)4.6 mph0.02 inDrizzle
11:15 AM71.6 °F0.0 °F30.15 in5.0 miNE (50°)6.9 mph0.01 inRainRain
11:35 AM71.6 °F0.0 °F30.15 in7.0 miNE (40°)5.8 mph0.01 inLight Drizzle
11:55 AM71.6 °F0.0 °F30.14 in10.0 miNE (50°)8.1 mph0.01 inOvercast
12:15 PM71.6 °F0.0 °F30.13 in10.0 miNE (40°)5.8 mphOvercast
12:35 PM73.4 °F0.0 °F30.12 in10.0 miENE (60°)5.8 mphOvercast
12:55 PM73.4 °F0.0 °F30.11 in10.0 miNE (50°)5.8 mphOvercast
1:15 PM75.2 °F0.0 °F30.10 in10.0 miENE (60°)8.1 mphOvercast
1:35 PM73.4 °F0.0 °F30.09 in10.0 miENE (70°)8.1 mphOvercast
1:55 PM75.2 °F0.0 °F30.09 in10.0 miENE (60°)4.6 mphOvercast
2:15 PM75.2 °F0.0 °F30.08 in10.0 miENE (60°)8.1 mphOvercast
2:35 PM75.2 °F0.0 °F30.08 in10.0 miENE (70°)10.4 mphOvercast
2:55 PM75.2 °F0.0 °F30.07 in10.0 miNE (50°)6.9 mphOvercast
3:15 PM75.2 °F0.0 °F30.08 in10.0 miNE (50°)6.9 mphOvercast
3:35 PM75.2 °F0.0 °F30.08 in7.0 miCalmOvercast
3:55 PM75.2 °F0.0 °F30.08 in7.0 miNE (40°)3.5 mphOvercast
4:15 PM75.2 °F0.0 °F30.08 in7.0 miNE (50°)5.8 mphOvercast
4:35 PM75.2 °F0.0 °F30.08 in7.0 miNE (50°)6.9 mphOvercast
4:55 PM73.4 °F0.0 °F30.08 in10.0 miENE (60°)5.8 mphOvercast
5:15 PM73.4 °F0.0 °F30.08 in7.0 miENE (70°)6.9 mphOvercast
5:35 PM73.4 °F0.0 °F30.09 in4.0 miEast (80°)3.5 mphRainLight Rain
5:55 PM73.4 °F0.0 °F30.09 in5.0 miENE (70°)5.8 mph0.01 inDrizzle
6:15 PM73.4 °F0.0 °F30.09 in5.0 miEast (100°)6.9 mphHaze
6:35 PM73.4 °F0.0 °F30.10 in4.0 miESE (120°)6.9 mph0.01 inDrizzle
6:55 PM71.6 °F0.0 °F30.10 in4.0 miESE (110°)9.2 mph0.02 inLight Drizzle
7:15 PM71.6 °F0.0 °F30.10 in5.0 miEast (90°)8.1 mphHaze
7:35 PM71.6 °F0.0 °F30.11 in10.0 miESE (110°)6.9 mphOvercast
7:55 PM71.6 °F0.0 °F30.12 in10.0 miEast (100°)5.8 mphOvercast
8:15 PM71.6 °F0.0 °F30.12 in10.0 miEast (100°)4.6 mphOvercast
8:35 PM69.8 °F0.0 °F30.12 in10.0 miEast (90°)3.5 mphOvercast
8:55 PM69.8 °F0.0 °F30.12 in10.0 miEast (100°)5.8 mphOvercast
9:15 PM69.8 °F0.0 °F30.12 in10.0 miEast (100°)4.6 mphOvercast
9:35 PM69.8 °F0.0 °F30.12 in10.0 miEast (100°)6.9 mphOvercast
9:55 PM69.8 °F0.0 °F30.12 in10.0 miESE (110°)4.6 mphOvercast
10:15 PM69.8 °F0.0 °F30.12 in10.0 miEast (100°)4.6 mphOvercast
10:35 PM69.8 °F0.0 °F30.12 in10.0 miEast (90°)4.6 mphOvercast
10:55 PM69.8 °F0.0 °F30.12 in10.0 miEast (90°)4.6 mphOvercast
11:15 PM69.8 °F0.0 °F30.12 in10.0 miEast (80°)3.5 mphOvercast
11:35 PM69.8 °F0.0 °F30.11 in10.0 miENE (70°)3.5 mphOvercast
11:55 PM69.8 °F0.0 °F30.10 in10.0 miEast (90°)4.6 mphOvercast
Hourly data recorded from KPCM, located miles away from San Martiniano, Quintana Roo







STORIES FROM OUR PARTNERS